Darstellungsparameter: Aktuell verwendete Einstellungen:
Skalierung der Graphiken ... ?
xyx+y,   Skalierungsfaktor:      Skalierung: Modus: x, Faktor: 1
Darstellungszeitraum ... ?
Vom - - bis: - -   Zeitraum: 28.04.2021 - 27.10.2021
Min/Max/Avg-Anzeige ... ?
Zeige MMA aktuell
Zeige MMA Monat
Zeige MMA alles
Zeige --A aktuell
Zeige --A Monat
Zeige --A alles
Keine MMA-Anzeige
MMA:
Average (ber die Originaldaten)
MMA-Basis: 28.04.2021 - 27.10.2021
Quicknavigation für Darstellung... ?
Tage:      1T, 2T, 3T, 5T -1T -2T -3T -5T +1T +2T +3T +5T
Wochen: 1W, 2W, 3W -1W -2W -3W +1W +2W +3W
Monate: 1M, 3M, 6M -1M -3M -6M +1M +3M +6M
Jahre:    1J, 3J, 5J, 10J -1J -3J -5J -10J +1J +3J +5J +10J
Nutze für die Darstellung ... ?
Originaldaten oder ...
Mittelwerte Minima Maxima auf...
Stundenbasis Tagesbasis Wochenbasis
Monatsbasis Jahresbasis      Datenbasis: Mittelwerte auf Tagesbasis
Darstellen als:
Statistik (Auto) Statistik J:M      Darstellung:
Zur Graphik,    zurück zur Übersicht aller Sensoren.
 
Tabellarische Datenbersicht: ?
 
Sensor: Nr:Datum:Temp:Abs-Feuchte:Windchill:Wind:
Aussen-T/F 1 28-04-2021 00:00:00 11.48438 C 6.33 g/m*3 11.48 C 4.43889 km/h
2 29-04-2021 00:00:00 11.84201 C 7.06 g/m*3 11.84 C 12.02014 km/h
3 30-04-2021 00:00:00 8.08681 C 6.14 g/m*3 8.09 C 3.95208 km/h
4 01-05-2021 00:00:00 10.12083 C 6.33 g/m*3 9.78 C 5.36493 km/h
5 02-05-2021 00:00:00 8.56319 C 5.79 g/m*3 7.66 C 6.59236 km/h
6 03-05-2021 00:00:00 8.08958 C 5.62 g/m*3 7.18 C 6.33889 km/h
7 04-05-2021 00:00:00 11.0875 C 7.2 g/m*3 11.09 C 14.54444 km/h
8 05-05-2021 00:00:00 7.64479 C 6.14 g/m*3 5.69 C 10.66319 km/h
9 06-05-2021 00:00:00 7.87813 C 6.69 g/m*3 7.06 C 5.91215 km/h
10 07-05-2021 00:00:00 7.66736 C 6.41 g/m*3 6.56 C 6.81389 km/h
11 08-05-2021 00:00:00 9.96632 C 6.83 g/m*3 9.97 C 3.73576 km/h
12 09-05-2021 00:00:00 18.04653 C 10.08 g/m*3 18.05 C 6.30035 km/h
13 10-05-2021 00:00:00 17.83646 C 10.87 g/m*3 17.84 C 6.72951 km/h
14 11-05-2021 00:00:00 13.64132 C 11.16 g/m*3 13.64 C 1.67361 km/h
15 12-05-2021 00:00:00 14.16042 C 9.77 g/m*3 14.16 C 4.97743 km/h
16 13-05-2021 00:00:00 12.7441 C 8.61 g/m*3 12.74 C 3.80833 km/h
17 14-05-2021 00:00:00 13.14375 C 8.5 g/m*3 13.14 C 5.64861 km/h
18 15-05-2021 00:00:00 11.39861 C 8.97 g/m*3 11.4 C 4.22743 km/h
19 16-05-2021 00:00:00 11.40799 C 9.1 g/m*3 11.41 C 5.60833 km/h
20 17-05-2021 00:00:00 12.12326 C 9.24 g/m*3 12.12 C 8.30243 km/h
21 18-05-2021 00:00:00 10.75243 C 8.92 g/m*3 10.32 C 6.07847 km/h
22 19-05-2021 00:00:00 10.85243 C 8.61 g/m*3 10.32 C 6.54931 km/h
23 20-05-2021 00:00:00 12.43264 C 8.89 g/m*3 12.43 C 4.62257 km/h
24 21-05-2021 00:00:00 14.13958 C 8.32 g/m*3 14.14 C 10.73333 km/h
25 22-05-2021 00:00:00 11.75903 C 8.3 g/m*3 11.76 C 13.07014 km/h
Sensor: Nr:Datum:Temp:Abs-Feuchte:Windchill:Wind:
Aussen-T/F 26 23-05-2021 00:00:00 11.90069 C 8.03 g/m*3 11.9 C 9.21458 km/h
27 24-05-2021 00:00:00 11.46944 C 8.48 g/m*3 11.47 C 5.73194 km/h
28 25-05-2021 00:00:00 10.36424 C 8.17 g/m*3 8.79 C 11.73924 km/h
29 26-05-2021 00:00:00 10.95312 C 8.88 g/m*3 10.33 C 7.02257 km/h
30 27-05-2021 00:00:00 11.44896 C 8.99 g/m*3 11.45 C 7.41076 km/h
31 28-05-2021 00:00:00 13.48993 C 8.99 g/m*3 13.49 C 3.70486 km/h
32 29-05-2021 00:00:00 13.71181 C 8.47 g/m*3 13.71 C 5.0309 km/h
33 30-05-2021 00:00:00 14.68611 C 8.45 g/m*3 14.69 C 6.49792 km/h
34 31-05-2021 00:00:00 16.09722 C 9.03 g/m*3 16.1 C 5.125 km/h
35 01-06-2021 00:00:00 16.74132 C 9.13 g/m*3 16.74 C 5.05243 km/h
36 02-06-2021 00:00:00 18.31146 C 10.09 g/m*3 18.31 C 4.86701 km/h
37 03-06-2021 00:00:00 19.31597 C 14.06 g/m*3 19.32 C 2.38819 km/h
38 04-06-2021 00:00:00 19.49097 C 15.22 g/m*3 19.49 C 2.20417 km/h
39 05-06-2021 00:00:00 17.62465 C 13.72 g/m*3 17.62 C 3.38785 km/h
40 06-06-2021 00:00:00 15.63021 C 12.13 g/m*3 15.63 C 5.57743 km/h
41 07-06-2021 00:00:00 17.37188 C 13.22 g/m*3 17.37 C 2.78576 km/h
42 08-06-2021 00:00:00 18.99167 C 13.34 g/m*3 18.99 C 2.50938 km/h
43 09-06-2021 00:00:00 19.75347 C 13.08 g/m*3 19.75 C 3.59861 km/h
44 10-06-2021 00:00:00 20.5309 C 12.66 g/m*3 20.53 C 3.97743 km/h
45 11-06-2021 00:00:00 20.7809 C 13.27 g/m*3 20.78 C 3.30625 km/h
46 12-06-2021 00:00:00 19.39167 C 12.75 g/m*3 19.39 C 6.87049 km/h
47 13-06-2021 00:00:00 17.70799 C 9.99 g/m*3 17.71 C 4.7559 km/h
48 14-06-2021 00:00:00 19.1125 C 11.29 g/m*3 19.11 C 2.72743 km/h
49 15-06-2021 00:00:00 21.18333 C 13.27 g/m*3 21.18 C 3.97917 km/h
50 16-06-2021 00:00:00 23.67361 C 14.87 g/m*3 23.67 C 4.09479 km/h
Sensor: Nr:Datum:Temp:Abs-Feuchte:Windchill:Wind:
Aussen-T/F 51 17-06-2021 00:00:00 24.79931 C 16.38 g/m*3 24.8 C 3.51771 km/h
52 18-06-2021 00:00:00 25.62431 C 17.6 g/m*3 25.62 C 2.94653 km/h
53 19-06-2021 00:00:00 24.69757 C 16.26 g/m*3 24.7 C 3.33819 km/h
54 20-06-2021 00:00:00 22.50486 C 16.31 g/m*3 22.5 C 6.64653 km/h
55 21-06-2021 00:00:00 20.09757 C 14.31 g/m*3 20.1 C 9.32604 km/h
56 22-06-2021 00:00:00 15.5941 C 12.34 g/m*3 15.59 C 1.92292 km/h
57 23-06-2021 00:00:00 17.93021 C 13.31 g/m*3 17.93 C 4.35833 km/h
58 24-06-2021 00:00:00 17.02604 C 13.28 g/m*3 17.03 C 1.94688 km/h
59 25-06-2021 00:00:00 18.32326 C 12.63 g/m*3 18.32 C 4.44063 km/h
60 26-06-2021 00:00:00 18.14583 C 12.05 g/m*3 18.15 C 2.1684 km/h
61 27-06-2021 00:00:00 20.21875 C 14.32 g/m*3 20.22 C 2.91389 km/h
62 28-06-2021 00:00:00 20.21285 C 15.5 g/m*3 20.21 C 2.91215 km/h
63 29-06-2021 00:00:00 18.4441 C 14.44 g/m*3 18.44 C 4.45243 km/h
64 30-06-2021 00:00:00 16.35764 C 12.76 g/m*3 16.36 C 4.95208 km/h
65 01-07-2021 00:00:00 15.16146 C 11.47 g/m*3 15.16 C 4.44306 km/h
66 02-07-2021 00:00:00 17.66597 C 12.06 g/m*3 17.67 C 3.21389 km/h
67 03-07-2021 00:00:00 18.65035 C 13.3 g/m*3 18.65 C 1.77847 km/h
68 04-07-2021 00:00:00 18.04479 C 14.21 g/m*3 18.04 C 2.08889 km/h
69 05-07-2021 00:00:00 17.35104 C 13.64 g/m*3 17.35 C 2.06736 km/h
70 06-07-2021 00:00:00 17.76562 C 13.99 g/m*3 17.77 C 3.45174 km/h
71 07-07-2021 00:00:00 18.26319 C 13.29 g/m*3 18.26 C 2.64236 km/h
72 08-07-2021 00:00:00 16.6816 C 13.14 g/m*3 16.68 C 1.46389 km/h
73 09-07-2021 00:00:00 17.82292 C 13.68 g/m*3 17.82 C 3.13333 km/h
74 10-07-2021 00:00:00 18.66944 C 13.82 g/m*3 18.67 C 2.32604 km/h
75 11-07-2021 00:00:00 18.2066 C 13.98 g/m*3 18.21 C 1.57083 km/h
Sensor: Nr:Datum:Temp:Abs-Feuchte:Windchill:Wind:
Aussen-T/F 76 12-07-2021 00:00:00 18.59028 C 14.16 g/m*3 18.59 C 1.65833 km/h
77 13-07-2021 00:00:00 18.75347 C 15.08 g/m*3 18.75 C 1.39097 km/h
78 14-07-2021 00:00:00 16.93438 C 13.81 g/m*3 16.93 C 2.84722 km/h
79 15-07-2021 00:00:00 19.04028 C 14.41 g/m*3 19.04 C 2.32882 km/h
80 16-07-2021 00:00:00 18.48299 C 14.12 g/m*3 18.48 C 5.37014 km/h
81 17-07-2021 00:00:00 19.88681 C 14.39 g/m*3 19.89 C 5.26458 km/h
82 18-07-2021 00:00:00 20.82257 C 14.23 g/m*3 20.82 C 6.69063 km/h
83 19-07-2021 00:00:00 18.94792 C 13.09 g/m*3 18.95 C 5.35521 km/h
84 20-07-2021 00:00:00 17.74097 C 11.78 g/m*3 17.74 C 3.68924 km/h
85 21-07-2021 00:00:00 18.1066 C 11.55 g/m*3 18.11 C 3.13924 km/h
86 22-07-2021 00:00:00 18.83368 C 12.67 g/m*3 18.83 C 1.57083 km/h
87 23-07-2021 00:00:00 20.0434 C 13.41 g/m*3 20.04 C 2.2809 km/h
88 24-07-2021 00:00:00 18.05556 C 14.22 g/m*3 18.06 C 1.81597 km/h
89 25-07-2021 00:00:00 19.12254 C 14.63 g/m*3 19.12 C 3.21373 km/h
90 26-07-2021 00:00:00 19.75139 C 14.08 g/m*3 19.75 C 5.21181 km/h
91 27-07-2021 00:00:00 18.37014 C 13.79 g/m*3 18.37 C 3.20313 km/h
92 28-07-2021 00:00:00 18.33924 C 13.37 g/m*3 18.34 C 6.67326 km/h
93 29-07-2021 00:00:00 18.12465 C 11.91 g/m*3 18.12 C 7.2559 km/h
94 30-07-2021 00:00:00 18.71042 C 12.1 g/m*3 18.71 C 6.20035 km/h
95 31-07-2021 00:00:00 18.27676 C 11.33 g/m*3 18.28 C 9.38556 km/h
96 01-08-2021 00:00:00 17.03264 C 11.96 g/m*3 17.03 C 5.34028 km/h
97 02-08-2021 00:00:00 15.90278 C 12.39 g/m*3 15.9 C 3.55347 km/h
98 03-08-2021 00:00:00 16.08889 C 12.52 g/m*3 16.09 C 2.00139 km/h
99 04-08-2021 00:00:00 16.26181 C 12.55 g/m*3 16.26 C 1.64618 km/h
100 05-08-2021 00:00:00 17.575 C 13.18 g/m*3 17.58 C 1.77361 km/h
Sensor: Nr:Datum:Temp:Abs-Feuchte:Windchill:Wind:
Aussen-T/F 101 06-08-2021 00:00:00 18.07951 C 13.14 g/m*3 18.08 C 6.92743 km/h
102 07-08-2021 00:00:00 17.24306 C 12.51 g/m*3 17.24 C 2.12986 km/h
103 08-08-2021 00:00:00 16.03063 C 11.87 g/m*3 16.03 C 6.99373 km/h
104 09-08-2021 00:00:00 15.70461 C 11.41 g/m*3 15.7 C 3.17834 km/h
105 10-08-2021 00:00:00 17.57666 C 12.63 g/m*3 17.58 C 4.76272 km/h
106 11-08-2021 00:00:00 18.75245 C 13.7 g/m*3 18.75 C 0.79545 km/h
107 12-08-2021 00:00:00 20.1691 C 14.6 g/m*3 20.17 C 1.32153 km/h
108 13-08-2021 00:00:00 20.75729 C 15.18 g/m*3 20.76 C 2.97083 km/h
109 14-08-2021 00:00:00 19.68056 C 14.17 g/m*3 19.68 C 2.80625 km/h
110 15-08-2021 00:00:00 18.95486 C 13.82 g/m*3 18.95 C 1.39826 km/h
111 16-08-2021 00:00:00 16.7316 C 11.99 g/m*3 16.73 C 8.29201 km/h
112 17-08-2021 00:00:00 13.51285 C 10.47 g/m*3 13.51 C 7.6434 km/h
113 18-08-2021 00:00:00 16.68368 C 12.84 g/m*3 16.68 C 5.44896 km/h
114 19-08-2021 00:00:00 18.23472 C 13.36 g/m*3 18.23 C 6.95833 km/h
115 20-08-2021 00:00:00 17.56042 C 13.02 g/m*3 17.56 C 2.08472 km/h
116 21-08-2021 00:00:00 18.3684 C 13.73 g/m*3 18.37 C 1.52847 km/h
117 22-08-2021 00:00:00 18.26146 C 14.09 g/m*3 18.26 C 4.12014 km/h
118 23-08-2021 00:00:00 17.50521 C 13.23 g/m*3 17.51 C 2.96111 km/h
119 24-08-2021 00:00:00 15.66146 C 11.14 g/m*3 15.66 C 3.90313 km/h
120 25-08-2021 00:00:00 15.02708 C 10.55 g/m*3 15.03 C 1.83333 km/h
121 26-08-2021 00:00:00 16.40174 C 11.39 g/m*3 16.4 C 6.78056 km/h
122 27-08-2021 00:00:00 14.92917 C 11.24 g/m*3 14.93 C 5.78715 km/h
123 28-08-2021 00:00:00 15.44653 C 12.35 g/m*3 15.45 C 1.7809 km/h
124 29-08-2021 00:00:00 15.32778 C 12.24 g/m*3 15.33 C 5.13889 km/h
125 30-08-2021 00:00:00 17.17202 C 12.79 g/m*3 17.17 C 4.32294 km/h
Sensor: Nr:Datum:Temp:Abs-Feuchte:Windchill:Wind:
Aussen-T/F 126 31-08-2021 00:00:00 15.90451 C 11.81 g/m*3 15.9 C 4.22708 km/h
127 01-09-2021 00:00:00 15.32292 C 11.29 g/m*3 15.32 C 2.77882 km/h
128 02-09-2021 00:00:00 15.57326 C 11.45 g/m*3 15.57 C 2.15972 km/h
129 03-09-2021 00:00:00 15.62043 C 11.47 g/m*3 15.62 C 1.29574 km/h
130 04-09-2021 00:00:00 16.59444 C 12.1 g/m*3 16.59 C 1.47535 km/h
131 05-09-2021 00:00:00 16.91007 C 12.65 g/m*3 16.91 C 0.80069 km/h
132 06-09-2021 00:00:00 17.19123 C 12.79 g/m*3 17.19 C 1.01754 km/h
133 07-09-2021 00:00:00 17.42293 C 12.77 g/m*3 17.42 C 0.62556 km/h
134 08-09-2021 00:00:00 17.4852 C 12.38 g/m*3 17.49 C 1.72347 km/h
135 09-09-2021 00:00:00 18.16224 C 13.65 g/m*3 18.16 C 2.72517 km/h
136 10-09-2021 00:00:00 20.31875 C 15.55 g/m*3 20.32 C 3.35139 km/h
137 11-09-2021 00:00:00 18.95243 C 14.07 g/m*3 18.95 C 1.82674 km/h
138 12-09-2021 00:00:00 16.74271 C 11.85 g/m*3 16.74 C 2.36979 km/h
139 13-09-2021 00:00:00 14.9375 C 11.26 g/m*3 14.94 C 0.90069 km/h
140 14-09-2021 00:00:00 16.50764 C 13.03 g/m*3 16.51 C 0.66111 km/h
141 15-09-2021 00:00:00 19.16389 C 15.39 g/m*3 19.16 C 2.25938 km/h
142 16-09-2021 00:00:00 16.22812 C 12.2 g/m*3 16.23 C 3.74896 km/h
143 17-09-2021 00:00:00 14.5809 C 11.23 g/m*3 14.58 C 0.69549 km/h
144 18-09-2021 00:00:00 14.56979 C 11.26 g/m*3 14.57 C 0.18889 km/h
145 19-09-2021 00:00:00 13.99062 C 10.48 g/m*3 13.99 C 2.46319 km/h
146 20-09-2021 00:00:00 13.42153 C 9.74 g/m*3 13.42 C 2.05347 km/h
147 21-09-2021 00:00:00 12.21701 C 8.63 g/m*3 12.22 C 1.90556 km/h
148 22-09-2021 00:00:00 11.0684 C 9 g/m*3 11.07 C 0.24444 km/h
149 23-09-2021 00:00:00 13.46458 C 9.81 g/m*3 13.46 C 3.08611 km/h
150 24-09-2021 00:00:00 15.75139 C 11.46 g/m*3 15.75 C 5.2 km/h
Sensor: Nr:Datum:Temp:Abs-Feuchte:Windchill:Wind:
Aussen-T/F 151 25-09-2021 00:00:00 14.55035 C 11.21 g/m*3 14.55 C 0.02778 km/h
152 26-09-2021 00:00:00 16.16667 C 12.73 g/m*3 16.17 C 1.00764 km/h
153 27-09-2021 00:00:00 16.01493 C 12.56 g/m*3 16.01 C 1.86146 km/h
154 28-09-2021 00:00:00 12.70486 C 10.13 g/m*3 12.7 C 2.32951 km/h
155 29-09-2021 00:00:00 11.46528 C 9.04 g/m*3 11.47 C 5.54514 km/h
156 30-09-2021 00:00:00 10.65104 C 8.33 g/m*3 10.24 C 5.93819 km/h
157 01-10-2021 00:00:00 11.02917 C 8.66 g/m*3 11.03 C 2.28993 km/h
158 02-10-2021 00:00:00 15.01458 C 11.2 g/m*3 15.01 C 2.77188 km/h
159 03-10-2021 00:00:00 18.50799 C 12.03 g/m*3 18.51 C 7.05417 km/h
160 04-10-2021 00:00:00 13.61597 C 9.94 g/m*3 13.62 C 2.47778 km/h
161 05-10-2021 00:00:00 12.23056 C 9.63 g/m*3 12.23 C 2.73542 km/h
162 06-10-2021 00:00:00 11.90382 C 9.14 g/m*3 11.9 C 9.46736 km/h
163 07-10-2021 00:00:00 12.24826 C 9.75 g/m*3 12.25 C 2.25278 km/h
164 08-10-2021 00:00:00 10.55104 C 8.99 g/m*3 10.55 C 1.36563 km/h
165 09-10-2021 00:00:00 9.57049 C 8.41 g/m*3 9.57 C 1.41181 km/h
166 10-10-2021 00:00:00 7.3184 C 7.33 g/m*3 7.32 C 1.06736 km/h
167 11-10-2021 00:00:00 8.84479 C 7.95 g/m*3 8.84 C 2.35417 km/h
168 12-10-2021 00:00:00 10.04271 C 9 g/m*3 10.04 C 2.00382 km/h
169 13-10-2021 00:00:00 8.32569 C 7.99 g/m*3 8.33 C 2.06319 km/h
170 14-10-2021 00:00:00 10.88194 C 9.12 g/m*3 10.88 C 4.49896 km/h
171 15-10-2021 00:00:00 9.27708 C 8.37 g/m*3 9.28 C 4.56597 km/h
172 16-10-2021 00:00:00 7.72118 C 7.86 g/m*3 7.72 C 1.28368 km/h
173 17-10-2021 00:00:00 9.33681 C 8.28 g/m*3 9.34 C 0.84132 km/h
174 18-10-2021 00:00:00 7.59896 C 7.52 g/m*3 7.6 C 1.41563 km/h
175 19-10-2021 00:00:00 11.75903 C 10.07 g/m*3 11.76 C 2.4184 km/h
Sensor: Nr:Datum:Temp:Abs-Feuchte:Windchill:Wind:
Aussen-T/F 176 20-10-2021 00:00:00 13.41528 C 10.99 g/m*3 13.42 C 3.45556 km/h
177 21-10-2021 00:00:00 11.72882 C 8.86 g/m*3 11.73 C 15.61458 km/h
178 22-10-2021 00:00:00 7.64946 C 6.94 g/m*3 5.92 C 9.49713 km/h
179 23-10-2021 00:00:00 8.12431 C 7.68 g/m*3 8.12 C 0.82778 km/h
180 24-10-2021 00:00:00 5.46007 C 6.56 g/m*3 5.46 C 1.0684 km/h
181 25-10-2021 00:00:00 6.09063 C 7.01 g/m*3 6.09 C 1.26597 km/h
182 26-10-2021 00:00:00 11.92049 C 9.22 g/m*3 11.92 C 8.95313 km/h
183 27-10-2021 00:00:00 12.22986 C 9.65 g/m*3 12.23 C 6.11736 km/h

Maximal/Minimal-Werte vom 28.04.2021 - 27.10.2021

Sensor Min Max Avg
Temp
(Aussen-T/F)
0.1 °C
03-05-2021  06:15:00
35.2 °C
17-06-2021  17:25:00
15.46 °C
Abs-Feuchte
(Aussen-T/F)
5.62 g/m*3
03-05-2021  00:00:00
17.6 g/m*3
18-06-2021  00:00:00
11.28 g/m*3
Windchill
(Aussen-T/F)
5.46 C
24-10-2021  00:00:00
25.62 C
18-06-2021  00:00:00
15.32 C

Die Daten stammen von einer Davis Vantage Pro 2 Wetter-Station und werden unter Linux mit der Software wview2wettercgi und aufbereitet. Alle Angaben erfolgen ohne Gewähr für ihre Vollständigkeit oder Richtigkeit.
Kontakt: Rainer Krienke krienke@uni-koblenz.de . Meine Webseiten an der Uni Koblenz oder privat.
Version: $Revision: 0.78 $